sensor_id;sensor_type;location;lat;lon;timestamp;P1;durP1;ratioP1;P2;durP2;ratioP2
57467;SDS011;43311;51.196;7.518;2024-03-08T00:03:55;34.20;;;14.00;;
57467;SDS011;43311;51.196;7.518;2024-03-08T00:06:21;33.17;;;14.38;;
57467;SDS011;43311;51.196;7.518;2024-03-08T00:08:46;36.63;;;14.75;;
57467;SDS011;43311;51.196;7.518;2024-03-08T00:11:12;32.00;;;14.57;;
57467;SDS011;43311;51.196;7.518;2024-03-08T00:13:37;31.27;;;14.98;;
57467;SDS011;43311;51.196;7.518;2024-03-08T00:16:03;32.90;;;14.98;;
57467;SDS011;43311;51.196;7.518;2024-03-08T00:18:28;33.35;;;15.05;;
57467;SDS011;43311;51.196;7.518;2024-03-08T00:20:54;35.38;;;14.15;;
57467;SDS011;43311;51.196;7.518;2024-03-08T00:23:21;30.17;;;14.82;;
57467;SDS011;43311;51.196;7.518;2024-03-08T00:25:46;34.25;;;15.25;;
57467;SDS011;43311;51.196;7.518;2024-03-08T00:28:12;35.40;;;15.48;;
57467;SDS011;43311;51.196;7.518;2024-03-08T00:30:40;32.10;;;15.30;;
57467;SDS011;43311;51.196;7.518;2024-03-08T00:33:06;30.38;;;14.18;;
57467;SDS011;43311;51.196;7.518;2024-03-08T00:35:32;31.38;;;14.10;;
57467;SDS011;43311;51.196;7.518;2024-03-08T00:37:58;32.53;;;15.43;;
57467;SDS011;43311;51.196;7.518;2024-03-08T00:40:23;34.85;;;15.65;;
57467;SDS011;43311;51.196;7.518;2024-03-08T00:42:48;34.58;;;15.63;;
57467;SDS011;43311;51.196;7.518;2024-03-08T00:45:14;33.10;;;14.88;;
57467;SDS011;43311;51.196;7.518;2024-03-08T00:47:41;36.08;;;16.13;;
57467;SDS011;43311;51.196;7.518;2024-03-08T00:50:09;32.72;;;14.75;;
57467;SDS011;43311;51.196;7.518;2024-03-08T00:52:35;30.38;;;14.50;;
57467;SDS011;43311;51.196;7.518;2024-03-08T00:55:00;36.45;;;16.13;;
57467;SDS011;43311;51.196;7.518;2024-03-08T00:57:26;33.55;;;15.00;;
57467;SDS011;43311;51.196;7.518;2024-03-08T00:59:55;33.65;;;15.23;;
57467;SDS011;43311;51.196;7.518;2024-03-08T01:02:21;36.88;;;15.43;;
57467;SDS011;43311;51.196;7.518;2024-03-08T01:04:48;41.72;;;15.80;;
57467;SDS011;43311;51.196;7.518;2024-03-08T01:07:13;39.30;;;15.73;;
57467;SDS011;43311;51.196;7.518;2024-03-08T01:09:39;36.22;;;15.98;;
57467;SDS011;43311;51.196;7.518;2024-03-08T01:12:04;45.40;;;19.02;;
57467;SDS011;43311;51.196;7.518;2024-03-08T01:14:32;39.67;;;17.10;;
57467;SDS011;43311;51.196;7.518;2024-03-08T01:16:58;32.13;;;16.00;;
57467;SDS011;43311;51.196;7.518;2024-03-08T01:19:24;35.63;;;16.02;;
57467;SDS011;43311;51.196;7.518;2024-03-08T01:21:49;58.13;;;24.38;;
57467;SDS011;43311;51.196;7.518;2024-03-08T01:24:15;48.38;;;18.05;;
57467;SDS011;43311;51.196;7.518;2024-03-08T01:26:40;43.17;;;17.85;;
57467;SDS011;43311;51.196;7.518;2024-03-08T01:29:05;43.47;;;18.88;;
57467;SDS011;43311;51.196;7.518;2024-03-08T01:31:31;41.10;;;16.98;;
57467;SDS011;43311;51.196;7.518;2024-03-08T01:33:57;35.95;;;15.95;;
57467;SDS011;43311;51.196;7.518;2024-03-08T01:36:23;41.40;;;16.60;;
57467;SDS011;43311;51.196;7.518;2024-03-08T01:39:08;33.58;;;15.73;;
57467;SDS011;43311;51.196;7.518;2024-03-08T01:42:31;39.05;;;17.15;;
57467;SDS011;43311;51.196;7.518;2024-03-08T01:44:56;39.00;;;16.85;;
57467;SDS011;43311;51.196;7.518;2024-03-08T01:47:22;40.42;;;16.35;;
57467;SDS011;43311;51.196;7.518;2024-03-08T01:50:03;38.92;;;16.20;;
57467;SDS011;43311;51.196;7.518;2024-03-08T01:52:31;38.35;;;16.75;;
57467;SDS011;43311;51.196;7.518;2024-03-08T01:55:01;35.63;;;15.82;;
57467;SDS011;43311;51.196;7.518;2024-03-08T01:57:34;34.13;;;15.55;;
57467;SDS011;43311;51.196;7.518;2024-03-08T02:00:00;38.53;;;16.63;;
57467;SDS011;43311;51.196;7.518;2024-03-08T02:02:32;38.38;;;15.50;;
57467;SDS011;43311;51.196;7.518;2024-03-08T02:05:00;33.30;;;15.02;;
57467;SDS011;43311;51.196;7.518;2024-03-08T02:07:25;33.75;;;15.20;;
57467;SDS011;43311;51.196;7.518;2024-03-08T02:09:51;37.65;;;16.90;;
57467;SDS011;43311;51.196;7.518;2024-03-08T02:12:16;35.97;;;17.08;;
57467;SDS011;43311;51.196;7.518;2024-03-08T02:14:42;37.20;;;15.38;;
57467;SDS011;43311;51.196;7.518;2024-03-08T02:17:09;33.60;;;14.45;;
57467;SDS011;43311;51.196;7.518;2024-03-08T02:19:36;36.58;;;16.90;;
57467;SDS011;43311;51.196;7.518;2024-03-08T02:22:02;38.47;;;15.85;;
57467;SDS011;43311;51.196;7.518;2024-03-08T02:24:29;37.10;;;15.63;;
57467;SDS011;43311;51.196;7.518;2024-03-08T02:26:55;37.33;;;16.02;;
57467;SDS011;43311;51.196;7.518;2024-03-08T02:29:21;35.95;;;14.98;;
57467;SDS011;43311;51.196;7.518;2024-03-08T02:31:50;36.38;;;17.13;;
57467;SDS011;43311;51.196;7.518;2024-03-08T02:34:16;38.25;;;16.05;;
57467;SDS011;43311;51.196;7.518;2024-03-08T02:36:41;33.55;;;14.75;;
57467;SDS011;43311;51.196;7.518;2024-03-08T02:39:07;34.80;;;15.43;;
57467;SDS011;43311;51.196;7.518;2024-03-08T02:41:33;36.22;;;15.68;;
57467;SDS011;43311;51.196;7.518;2024-03-08T02:43:58;33.38;;;14.60;;
57467;SDS011;43311;51.196;7.518;2024-03-08T02:46:25;34.40;;;15.90;;
57467;SDS011;43311;51.196;7.518;2024-03-08T02:48:50;33.45;;;14.77;;
57467;SDS011;43311;51.196;7.518;2024-03-08T02:51:16;34.08;;;15.07;;
57467;SDS011;43311;51.196;7.518;2024-03-08T02:53:41;33.20;;;14.68;;
57467;SDS011;43311;51.196;7.518;2024-03-08T02:56:08;38.35;;;15.73;;
57467;SDS011;43311;51.196;7.518;2024-03-08T02:58:38;37.35;;;15.35;;
57467;SDS011;43311;51.196;7.518;2024-03-08T03:01:03;35.20;;;16.13;;
57467;SDS011;43311;51.196;7.518;2024-03-08T03:03:28;33.42;;;15.30;;
57467;SDS011;43311;51.196;7.518;2024-03-08T03:05:54;34.70;;;15.27;;
57467;SDS011;43311;51.196;7.518;2024-03-08T03:08:22;32.38;;;14.73;;
57467;SDS011;43311;51.196;7.518;2024-03-08T03:10:49;36.97;;;15.25;;
57467;SDS011;43311;51.196;7.518;2024-03-08T03:13:14;37.30;;;15.25;;
57467;SDS011;43311;51.196;7.518;2024-03-08T03:15:40;37.65;;;15.38;;
57467;SDS011;43311;51.196;7.518;2024-03-08T03:18:08;36.90;;;14.80;;
57467;SDS011;43311;51.196;7.518;2024-03-08T03:20:33;32.90;;;14.85;;
57467;SDS011;43311;51.196;7.518;2024-03-08T03:23:05;35.75;;;15.68;;
57467;SDS011;43311;51.196;7.518;2024-03-08T03:25:33;38.85;;;15.60;;
57467;SDS011;43311;51.196;7.518;2024-03-08T03:28:00;32.35;;;14.68;;
57467;SDS011;43311;51.196;7.518;2024-03-08T03:30:29;36.22;;;14.88;;
57467;SDS011;43311;51.196;7.518;2024-03-08T03:33:01;33.78;;;15.18;;
57467;SDS011;43311;51.196;7.518;2024-03-08T03:35:31;37.03;;;14.38;;
57467;SDS011;43311;51.196;7.518;2024-03-08T03:37:58;35.22;;;15.00;;
57467;SDS011;43311;51.196;7.518;2024-03-08T03:40:30;34.28;;;15.35;;
57467;SDS011;43311;51.196;7.518;2024-03-08T03:45:22;32.08;;;13.60;;
57467;SDS011;43311;51.196;7.518;2024-03-08T03:47:47;37.40;;;14.90;;
57467;SDS011;43311;51.196;7.518;2024-03-08T03:50:12;34.65;;;14.38;;
57467;SDS011;43311;51.196;7.518;2024-03-08T03:52:38;38.75;;;16.35;;
57467;SDS011;43311;51.196;7.518;2024-03-08T03:55:04;34.92;;;15.05;;
57467;SDS011;43311;51.196;7.518;2024-03-08T03:57:30;31.75;;;15.27;;
57467;SDS011;43311;51.196;7.518;2024-03-08T03:59:56;34.70;;;14.68;;
57467;SDS011;43311;51.196;7.518;2024-03-08T04:02:23;37.53;;;14.25;;
57467;SDS011;43311;51.196;7.518;2024-03-08T04:04:49;35.35;;;15.43;;
57467;SDS011;43311;51.196;7.518;2024-03-08T04:07:14;35.47;;;15.32;;
57467;SDS011;43311;51.196;7.518;2024-03-08T04:09:40;35.70;;;15.23;;
57467;SDS011;43311;51.196;7.518;2024-03-08T04:12:06;39.70;;;15.77;;
57467;SDS011;43311;51.196;7.518;2024-03-08T04:14:32;36.85;;;15.38;;
57467;SDS011;43311;51.196;7.518;2024-03-08T04:16:57;40.17;;;15.57;;
57467;SDS011;43311;51.196;7.518;2024-03-08T04:19:23;35.20;;;16.25;;
57467;SDS011;43311;51.196;7.518;2024-03-08T04:21:49;33.95;;;15.35;;
57467;SDS011;43311;51.196;7.518;2024-03-08T04:24:15;38.70;;;16.20;;
57467;SDS011;43311;51.196;7.518;2024-03-08T04:26:42;34.55;;;14.40;;
57467;SDS011;43311;51.196;7.518;2024-03-08T04:29:07;34.80;;;14.68;;
57467;SDS011;43311;51.196;7.518;2024-03-08T04:31:33;38.47;;;15.63;;
57467;SDS011;43311;51.196;7.518;2024-03-08T04:33:58;40.25;;;16.73;;
57467;SDS011;43311;51.196;7.518;2024-03-08T04:36:24;38.83;;;15.30;;
57467;SDS011;43311;51.196;7.518;2024-03-08T04:38:50;37.58;;;14.73;;
57467;SDS011;43311;51.196;7.518;2024-03-08T04:41:16;38.45;;;15.77;;
57467;SDS011;43311;51.196;7.518;2024-03-08T04:43:42;37.03;;;15.73;;
57467;SDS011;43311;51.196;7.518;2024-03-08T04:46:08;38.17;;;16.95;;
57467;SDS011;43311;51.196;7.518;2024-03-08T04:48:33;39.78;;;15.55;;
57467;SDS011;43311;51.196;7.518;2024-03-08T04:51:02;38.38;;;15.95;;
57467;SDS011;43311;51.196;7.518;2024-03-08T04:53:29;36.10;;;15.27;;
57467;SDS011;43311;51.196;7.518;2024-03-08T04:55:54;39.22;;;16.00;;
57467;SDS011;43311;51.196;7.518;2024-03-08T04:58:22;39.05;;;15.13;;
57467;SDS011;43311;51.196;7.518;2024-03-08T05:00:48;33.67;;;15.77;;
57467;SDS011;43311;51.196;7.518;2024-03-08T05:03:14;42.80;;;16.65;;
57467;SDS011;43311;51.196;7.518;2024-03-08T05:05:39;35.28;;;15.13;;
57467;SDS011;43311;51.196;7.518;2024-03-08T05:08:05;35.80;;;15.35;;
57467;SDS011;43311;51.196;7.518;2024-03-08T05:10:30;36.75;;;15.93;;
57467;SDS011;43311;51.196;7.518;2024-03-08T05:12:56;41.72;;;18.83;;
57467;SDS011;43311;51.196;7.518;2024-03-08T05:15:21;35.65;;;16.15;;
57467;SDS011;43311;51.196;7.518;2024-03-08T05:17:47;36.75;;;16.15;;
57467;SDS011;43311;51.196;7.518;2024-03-08T05:20:12;38.97;;;15.48;;
57467;SDS011;43311;51.196;7.518;2024-03-08T05:22:38;38.88;;;16.88;;
57467;SDS011;43311;51.196;7.518;2024-03-08T05:25:05;48.13;;;18.70;;
57467;SDS011;43311;51.196;7.518;2024-03-08T05:27:33;42.60;;;17.15;;
57467;SDS011;43311;51.196;7.518;2024-03-08T05:29:59;36.00;;;14.93;;
57467;SDS011;43311;51.196;7.518;2024-03-08T05:32:25;40.88;;;15.88;;
57467;SDS011;43311;51.196;7.518;2024-03-08T05:34:51;37.80;;;16.63;;
57467;SDS011;43311;51.196;7.518;2024-03-08T05:37:17;37.33;;;15.70;;
57467;SDS011;43311;51.196;7.518;2024-03-08T05:39:42;41.22;;;17.13;;
57467;SDS011;43311;51.196;7.518;2024-03-08T05:42:12;43.05;;;17.50;;
57467;SDS011;43311;51.196;7.518;2024-03-08T05:44:40;36.25;;;15.70;;
57467;SDS011;43311;51.196;7.518;2024-03-08T05:47:06;38.47;;;15.73;;
57467;SDS011;43311;51.196;7.518;2024-03-08T05:49:32;36.53;;;15.40;;
57467;SDS011;43311;51.196;7.518;2024-03-08T05:51:57;44.83;;;16.63;;
57467;SDS011;43311;51.196;7.518;2024-03-08T05:54:22;39.45;;;16.30;;
57467;SDS011;43311;51.196;7.518;2024-03-08T05:56:49;45.60;;;17.50;;
57467;SDS011;43311;51.196;7.518;2024-03-08T05:59:18;36.80;;;15.40;;
57467;SDS011;43311;51.196;7.518;2024-03-08T06:01:43;42.30;;;16.73;;
57467;SDS011;43311;51.196;7.518;2024-03-08T06:04:09;40.90;;;16.27;;
57467;SDS011;43311;51.196;7.518;2024-03-08T06:06:35;42.03;;;17.45;;
57467;SDS011;43311;51.196;7.518;2024-03-08T06:09:02;43.50;;;17.77;;
57467;SDS011;43311;51.196;7.518;2024-03-08T06:11:34;38.63;;;17.05;;
57467;SDS011;43311;51.196;7.518;2024-03-08T06:13:59;41.40;;;16.40;;
57467;SDS011;43311;51.196;7.518;2024-03-08T06:16:28;40.05;;;15.85;;
57467;SDS011;43311;51.196;7.518;2024-03-08T06:18:57;39.00;;;17.20;;
57467;SDS011;43311;51.196;7.518;2024-03-08T06:21:23;42.85;;;16.08;;
57467;SDS011;43311;51.196;7.518;2024-03-08T06:23:52;43.40;;;18.58;;
57467;SDS011;43311;51.196;7.518;2024-03-08T06:26:19;41.75;;;17.25;;
57467;SDS011;43311;51.196;7.518;2024-03-08T06:28:47;45.47;;;17.20;;
57467;SDS011;43311;51.196;7.518;2024-03-08T06:31:13;41.75;;;16.70;;
57467;SDS011;43311;51.196;7.518;2024-03-08T06:33:39;42.72;;;18.13;;
57467;SDS011;43311;51.196;7.518;2024-03-08T06:36:05;41.35;;;17.10;;
57467;SDS011;43311;51.196;7.518;2024-03-08T06:38:30;38.25;;;16.45;;
57467;SDS011;43311;51.196;7.518;2024-03-08T06:40:55;40.65;;;16.23;;
57467;SDS011;43311;51.196;7.518;2024-03-08T06:43:21;37.38;;;15.75;;
57467;SDS011;43311;51.196;7.518;2024-03-08T06:45:47;35.80;;;15.75;;
57467;SDS011;43311;51.196;7.518;2024-03-08T06:48:18;35.00;;;16.23;;
57467;SDS011;43311;51.196;7.518;2024-03-08T06:50:44;33.35;;;15.32;;
57467;SDS011;43311;51.196;7.518;2024-03-08T06:53:11;34.25;;;14.98;;
57467;SDS011;43311;51.196;7.518;2024-03-08T06:55:37;36.30;;;15.77;;
57467;SDS011;43311;51.196;7.518;2024-03-08T06:58:02;33.03;;;16.50;;
57467;SDS011;43311;51.196;7.518;2024-03-08T07:00:28;32.67;;;15.07;;
57467;SDS011;43311;51.196;7.518;2024-03-08T07:02:54;35.38;;;15.20;;
57467;SDS011;43311;51.196;7.518;2024-03-08T07:05:21;30.02;;;14.60;;
57467;SDS011;43311;51.196;7.518;2024-03-08T07:07:52;32.83;;;16.08;;
57467;SDS011;43311;51.196;7.518;2024-03-08T07:10:21;33.03;;;15.38;;
57467;SDS011;43311;51.196;7.518;2024-03-08T07:12:49;32.63;;;15.95;;
57467;SDS011;43311;51.196;7.518;2024-03-08T07:15:15;30.33;;;14.32;;
57467;SDS011;43311;51.196;7.518;2024-03-08T07:18:00;29.75;;;14.10;;
57467;SDS011;43311;51.196;7.518;2024-03-08T07:20:49;29.30;;;14.93;;
57467;SDS011;43311;51.196;7.518;2024-03-08T07:23:49;32.67;;;14.20;;
57467;SDS011;43311;51.196;7.518;2024-03-08T07:26:49;37.03;;;15.88;;
57467;SDS011;43311;51.196;7.518;2024-03-08T07:29:21;34.88;;;15.25;;
57467;SDS011;43311;51.196;7.518;2024-03-08T07:31:48;27.63;;;13.68;;
57467;SDS011;43311;51.196;7.518;2024-03-08T07:34:27;29.83;;;14.85;;
57467;SDS011;43311;51.196;7.518;2024-03-08T07:36:57;33.58;;;14.43;;
57467;SDS011;43311;51.196;7.518;2024-03-08T07:39:26;28.70;;;14.25;;
57467;SDS011;43311;51.196;7.518;2024-03-08T07:41:57;32.03;;;14.18;;
57467;SDS011;43311;51.196;7.518;2024-03-08T07:44:24;30.95;;;13.98;;
57467;SDS011;43311;51.196;7.518;2024-03-08T07:46:50;31.13;;;13.68;;
57467;SDS011;43311;51.196;7.518;2024-03-08T07:49:15;33.58;;;15.15;;
57467;SDS011;43311;51.196;7.518;2024-03-08T07:51:41;32.03;;;14.30;;
57467;SDS011;43311;51.196;7.518;2024-03-08T07:54:06;31.15;;;15.07;;
57467;SDS011;43311;51.196;7.518;2024-03-08T07:56:34;31.88;;;14.65;;
57467;SDS011;43311;51.196;7.518;2024-03-08T07:59:01;33.85;;;13.38;;
57467;SDS011;43311;51.196;7.518;2024-03-08T08:01:29;32.15;;;14.60;;
57467;SDS011;43311;51.196;7.518;2024-03-08T08:03:55;30.88;;;14.60;;
57467;SDS011;43311;51.196;7.518;2024-03-08T08:06:21;30.50;;;14.07;;
57467;SDS011;43311;51.196;7.518;2024-03-08T08:08:47;31.75;;;15.02;;
57467;SDS011;43311;51.196;7.518;2024-03-08T08:11:13;34.58;;;15.27;;
57467;SDS011;43311;51.196;7.518;2024-03-08T08:13:39;30.95;;;14.85;;
57467;SDS011;43311;51.196;7.518;2024-03-08T08:16:07;29.63;;;13.60;;
57467;SDS011;43311;51.196;7.518;2024-03-08T08:18:32;32.58;;;14.77;;
57467;SDS011;43311;51.196;7.518;2024-03-08T08:20:58;30.35;;;13.63;;
57467;SDS011;43311;51.196;7.518;2024-03-08T08:23:25;34.53;;;14.90;;
57467;SDS011;43311;51.196;7.518;2024-03-08T08:25:51;30.30;;;13.68;;
57467;SDS011;43311;51.196;7.518;2024-03-08T08:28:16;27.77;;;13.35;;
57467;SDS011;43311;51.196;7.518;2024-03-08T08:30:43;29.63;;;13.50;;
57467;SDS011;43311;51.196;7.518;2024-03-08T08:33:08;29.27;;;13.02;;
57467;SDS011;43311;51.196;7.518;2024-03-08T08:35:34;28.67;;;14.20;;
57467;SDS011;43311;51.196;7.518;2024-03-08T08:38:00;28.85;;;14.25;;
57467;SDS011;43311;51.196;7.518;2024-03-08T08:40:46;31.00;;;13.05;;
57467;SDS011;43311;51.196;7.518;2024-03-08T08:43:12;31.02;;;13.57;;
57467;SDS011;43311;51.196;7.518;2024-03-08T08:45:38;29.58;;;13.88;;
57467;SDS011;43311;51.196;7.518;2024-03-08T08:48:04;30.63;;;13.63;;
57467;SDS011;43311;51.196;7.518;2024-03-08T08:50:30;23.55;;;11.25;;
57467;SDS011;43311;51.196;7.518;2024-03-08T08:52:56;33.03;;;13.98;;
57467;SDS011;43311;51.196;7.518;2024-03-08T08:55:23;29.38;;;13.65;;
57467;SDS011;43311;51.196;7.518;2024-03-08T09:00:30;27.42;;;13.32;;
57467;SDS011;43311;51.196;7.518;2024-03-08T09:02:58;26.23;;;13.00;;
57467;SDS011;43311;51.196;7.518;2024-03-08T09:05:26;24.95;;;12.60;;
57467;SDS011;43311;51.196;7.518;2024-03-08T09:08:12;30.83;;;13.95;;
57467;SDS011;43311;51.196;7.518;2024-03-08T09:10:38;27.90;;;13.40;;
57467;SDS011;43311;51.196;7.518;2024-03-08T09:13:04;27.90;;;13.25;;
57467;SDS011;43311;51.196;7.518;2024-03-08T09:15:29;30.27;;;12.82;;
57467;SDS011;43311;51.196;7.518;2024-03-08T09:17:54;24.65;;;12.38;;
57467;SDS011;43311;51.196;7.518;2024-03-08T09:20:20;24.15;;;12.00;;
57467;SDS011;43311;51.196;7.518;2024-03-08T09:22:45;25.90;;;12.95;;
57467;SDS011;43311;51.196;7.518;2024-03-08T09:25:11;33.05;;;13.88;;
57467;SDS011;43311;51.196;7.518;2024-03-08T09:27:37;28.15;;;13.70;;
57467;SDS011;43311;51.196;7.518;2024-03-08T09:30:03;26.33;;;13.70;;
57467;SDS011;43311;51.196;7.518;2024-03-08T09:32:29;26.73;;;13.07;;
57467;SDS011;43311;51.196;7.518;2024-03-08T09:34:55;26.95;;;12.45;;
57467;SDS011;43311;51.196;7.518;2024-03-08T09:37:21;28.52;;;12.88;;
57467;SDS011;43311;51.196;7.518;2024-03-08T09:39:46;32.70;;;14.35;;
57467;SDS011;43311;51.196;7.518;2024-03-08T09:42:12;29.25;;;13.73;;
57467;SDS011;43311;51.196;7.518;2024-03-08T09:44:46;24.42;;;11.30;;
57467;SDS011;43311;51.196;7.518;2024-03-08T09:47:13;29.50;;;12.73;;
57467;SDS011;43311;51.196;7.518;2024-03-08T09:49:39;24.10;;;11.50;;
57467;SDS011;43311;51.196;7.518;2024-03-08T09:52:06;28.20;;;12.13;;
57467;SDS011;43311;51.196;7.518;2024-03-08T09:54:35;20.90;;;10.57;;
57467;SDS011;43311;51.196;7.518;2024-03-08T09:57:02;26.83;;;12.05;;
57467;SDS011;43311;51.196;7.518;2024-03-08T09:59:29;22.50;;;10.88;;
57467;SDS011;43311;51.196;7.518;2024-03-08T10:02:00;21.58;;;10.18;;
57467;SDS011;43311;51.196;7.518;2024-03-08T10:04:28;22.25;;;11.40;;
57467;SDS011;43311;51.196;7.518;2024-03-08T10:06:57;19.35;;;10.35;;
57467;SDS011;43311;51.196;7.518;2024-03-08T10:09:24;20.25;;;10.98;;
57467;SDS011;43311;51.196;7.518;2024-03-08T10:11:56;23.08;;;10.10;;
57467;SDS011;43311;51.196;7.518;2024-03-08T10:14:23;18.02;;;9.70;;
57467;SDS011;43311;51.196;7.518;2024-03-08T10:16:49;23.15;;;10.30;;
57467;SDS011;43311;51.196;7.518;2024-03-08T10:19:15;19.23;;;10.25;;
57467;SDS011;43311;51.196;7.518;2024-03-08T10:21:48;20.98;;;10.20;;
57467;SDS011;43311;51.196;7.518;2024-03-08T10:24:14;20.73;;;10.63;;
57467;SDS011;43311;51.196;7.518;2024-03-08T10:26:40;19.33;;;9.48;;
57467;SDS011;43311;51.196;7.518;2024-03-08T10:29:05;18.95;;;9.20;;
57467;SDS011;43311;51.196;7.518;2024-03-08T10:31:34;17.63;;;8.75;;
57467;SDS011;43311;51.196;7.518;2024-03-08T10:34:01;19.60;;;9.15;;
57467;SDS011;43311;51.196;7.518;2024-03-08T10:36:27;17.05;;;8.50;;
57467;SDS011;43311;51.196;7.518;2024-03-08T10:38:54;20.13;;;8.38;;
57467;SDS011;43311;51.196;7.518;2024-03-08T10:41:26;16.05;;;8.00;;
57467;SDS011;43311;51.196;7.518;2024-03-08T10:53:06;15.13;;;7.45;;
57467;SDS011;43311;51.196;7.518;2024-03-08T10:55:34;16.63;;;8.25;;
57467;SDS011;43311;51.196;7.518;2024-03-08T10:58:02;14.17;;;7.50;;
57467;SDS011;43311;51.196;7.518;2024-03-08T13:46:17;18.02;;;10.23;;
57467;SDS011;43311;51.196;7.518;2024-03-08T13:49:02;18.75;;;9.55;;
57467;SDS011;43311;51.196;7.518;2024-03-08T13:51:59;17.23;;;9.35;;
57467;SDS011;43311;51.196;7.518;2024-03-08T13:54:26;18.17;;;9.50;;
57467;SDS011;43311;51.196;7.518;2024-03-08T13:56:57;17.70;;;9.23;;
57467;SDS011;43311;51.196;7.518;2024-03-08T13:59:26;19.55;;;10.35;;
57467;SDS011;43311;51.196;7.518;2024-03-08T14:16:50;17.02;;;9.48;;
57467;SDS011;43311;51.196;7.518;2024-03-08T15:31:27;18.30;;;9.23;;
57467;SDS011;43311;51.196;7.518;2024-03-08T15:33:59;21.65;;;9.77;;
57467;SDS011;43311;51.196;7.518;2024-03-08T15:48:38;21.35;;;9.48;;
57467;SDS011;43311;51.196;7.518;2024-03-08T15:51:10;19.98;;;8.48;;
57467;SDS011;43311;51.196;7.518;2024-03-08T16:05:44;16.58;;;8.20;;
57467;SDS011;43311;51.196;7.518;2024-03-08T16:08:18;17.13;;;8.00;;
57467;SDS011;43311;51.196;7.518;2024-03-08T16:11:15;15.50;;;8.00;;
57467;SDS011;43311;51.196;7.518;2024-03-08T16:13:45;16.98;;;7.93;;
57467;SDS011;43311;51.196;7.518;2024-03-08T16:16:11;17.15;;;7.65;;
57467;SDS011;43311;51.196;7.518;2024-03-08T16:18:37;17.05;;;7.90;;
57467;SDS011;43311;51.196;7.518;2024-03-08T16:21:02;18.17;;;7.53;;
57467;SDS011;43311;51.196;7.518;2024-03-08T16:23:29;18.60;;;8.30;;
57467;SDS011;43311;51.196;7.518;2024-03-08T16:25:56;19.95;;;9.63;;
57467;SDS011;43311;51.196;7.518;2024-03-08T16:28:23;15.45;;;7.93;;
57467;SDS011;43311;51.196;7.518;2024-03-08T16:30:53;20.73;;;9.60;;
57467;SDS011;43311;51.196;7.518;2024-03-08T16:43:52;17.52;;;8.27;;
57467;SDS011;43311;51.196;7.518;2024-03-08T16:54:20;18.27;;;8.52;;
57467;SDS011;43311;51.196;7.518;2024-03-08T16:56:51;20.20;;;8.57;;
